Time;durP1;ratioP1;P1;durP2;ratioP2;P2;SDS_P1;SDS_P2;PMS_P1;PMS_P2;Temp;Humidity;BMP_temperature;BMP_pressure;BME280_temperature;BME280_humidity;BME280_pressure;Samples;Min_cycle;Max_cycle;Signal;HPM_P1;HPM_P2
2022/03/29 00:00:52;;;;;;;;;;;12.20;99.90;;;;;;4956117;28;19917;-52
2022/03/29 00:03:18;;;;;;;;;;;12.20;99.90;;;;;;4973328;28;19922;-51
2022/03/29 00:05:43;;;;;;;;;;;12.20;99.90;;;;;;4973584;28;19917;-52
2022/03/29 00:08:09;;;;;;;;;;;12.20;99.90;;;;;;4972986;28;19917;-53
2022/03/29 00:10:34;;;;;;;;;;;12.20;99.90;;;;;;4973533;28;20014;-51
2022/03/29 00:13:00;;;;;;;;;;;12.10;99.90;;;;;;4972385;28;20301;-52
2022/03/29 00:15:25;;;;;;;;;;;11.90;99.90;;;;;;4973246;28;19910;-50
2022/03/29 00:17:51;;;;;;;;;;;11.80;99.90;;;;;;4973307;28;19910;-51
2022/03/29 00:20:17;;;;;;;;;;;11.70;99.90;;;;;;4973407;28;19909;-51
2022/03/29 00:22:43;;;;;;;;;;;11.70;99.90;;;;;;4973231;28;19942;-52
2022/03/29 00:25:09;;;;;;;;;;;11.50;99.90;;;;;;4973027;28;20009;-53
2022/03/29 00:27:35;;;;;;;;;;;11.50;99.90;;;;;;4987412;28;19912;-51
2022/03/29 00:30:01;;;;;;;;;;;11.40;99.90;;;;;;4992746;28;19933;-51
2022/03/29 00:32:27;;;;;;;;;;;11.30;99.90;;;;;;4992379;28;20016;-52
2022/03/29 00:34:52;;;;;;;;;;;11.20;99.90;;;;;;4992338;28;19996;-51
2022/03/29 00:37:18;;;;;;;;;;;11.20;99.90;;;;;;4992308;28;20001;-52
2022/03/29 00:39:43;;;;;;;;;;;11.20;99.90;;;;;;4992341;28;20357;-52
2022/03/29 00:42:09;;;;;;;;;;;11.20;99.90;;;;;;4992331;28;19971;-50
2022/03/29 00:44:36;;;;;;;;;;;11.20;99.90;;;;;;4992396;28;19917;-51
2022/03/29 00:47:02;;;;;;;;;;;11.10;99.90;;;;;;4992282;28;20266;-51
2022/03/29 00:49:28;;;;;;;;;;;11.00;99.90;;;;;;4992224;28;19957;-49
2022/03/29 00:51:58;;;;;;;;;;;10.80;99.90;;;;;;4992070;28;19917;-51
2022/03/29 00:54:33;;;;;;;;;;;10.70;99.90;;;;;;4992398;28;20428;-53
2022/03/29 00:56:59;;;;;;;;;;;10.70;99.90;;;;;;4980882;28;19910;-53
2022/03/29 00:59:25;;;;;;;;;;;10.70;99.90;;;;;;4972694;28;19914;-51
2022/03/29 01:01:51;;;;;;;;;;;10.60;99.90;;;;;;4972469;28;19916;-53
2022/03/29 01:04:17;;;;;;;;;;;10.60;99.90;;;;;;4972390;28;19997;-51
2022/03/29 01:06:43;;;;;;;;;;;10.50;99.90;;;;;;4972185;28;20369;-51
2022/03/29 01:09:09;;;;;;;;;;;10.50;99.90;;;;;;4972437;28;19910;-52
2022/03/29 01:11:35;;;;;;;;;;;10.50;99.90;;;;;;4972605;28;20362;-51
2022/03/29 01:14:00;;;;;;;;;;;10.60;99.90;;;;;;4972328;28;19918;-52
2022/03/29 01:19:11;;;;;;;;;;;10.40;99.90;;;;;;4968699;28;19981;-52
2022/03/29 01:21:38;;;;;;;;;;;10.30;99.90;;;;;;4971134;28;19910;-51
2022/03/29 01:24:04;;;;;;;;;;;10.20;99.90;;;;;;4971298;28;19916;-51
2022/03/29 01:26:30;;;;;;;;;;;10.10;99.90;;;;;;4972010;28;19960;-50
2022/03/29 01:28:55;;;;;;;;;;;9.80;99.90;;;;;;4991225;28;19945;-50
2022/03/29 01:31:22;;;;;;;;;;;9.70;99.90;;;;;;4989372;28;19951;-51
2022/03/29 01:33:48;;;;;;;;;;;9.60;99.90;;;;;;4991044;28;20356;-49
2022/03/29 01:36:13;;;;;;;;;;;9.50;99.90;;;;;;4991179;28;20008;-50
2022/03/29 01:38:40;;;;;;;;;;;9.60;99.90;;;;;;4987146;28;20008;-50
2022/03/29 01:41:05;;;;;;;;;;;9.50;99.90;;;;;;4971700;28;19912;-51
2022/03/29 01:43:32;;;;;;;;;;;9.60;99.90;;;;;;4971434;28;20358;-51
2022/03/29 01:45:57;;;;;;;;;;;9.50;99.90;;;;;;4971620;28;19910;-50
2022/03/29 01:48:24;;;;;;;;;;;9.30;99.90;;;;;;4971254;28;19997;-49
2022/03/29 01:50:51;;;;;;;;;;;9.30;99.90;;;;;;4971409;28;19906;-53
2022/03/29 01:53:23;;;;;;;;;;;9.30;99.90;;;;;;4971512;28;19921;-51
2022/03/29 01:55:53;;;;;;;;;;;9.10;99.90;;;;;;4971483;28;19948;-52
2022/03/29 01:58:18;;;;;;;;;;;8.90;99.90;;;;;;4971290;28;19960;-52
2022/03/29 02:00:44;;;;;;;;;;;8.80;99.90;;;;;;4971328;28;20052;-51
2022/03/29 02:03:09;;;;;;;;;;;8.90;99.90;;;;;;4970780;28;19922;-52
2022/03/29 02:05:35;;;;;;;;;;;9.00;99.90;;;;;;4953928;28;19910;-51
2022/03/29 02:08:01;;;;;;;;;;;9.00;99.90;;;;;;4971067;28;19914;-51
2022/03/29 02:10:27;;;;;;;;;;;9.10;99.90;;;;;;4971328;28;20385;-53
2022/03/29 02:12:52;;;;;;;;;;;9.10;99.90;;;;;;4953407;28;19914;-52
2022/03/29 02:15:18;;;;;;;;;;;9.20;99.90;;;;;;4966241;28;19911;-53
2022/03/29 02:17:44;;;;;;;;;;;9.20;99.90;;;;;;4934346;29;20380;-50
2022/03/29 02:20:11;;;;;;;;;;;9.30;99.90;;;;;;4951866;29;19933;-52
2022/03/29 02:22:36;;;;;;;;;;;9.40;99.90;;;;;;4934513;29;19978;-54
2022/03/29 02:25:02;;;;;;;;;;;9.40;99.90;;;;;;4951677;29;20314;-51
2022/03/29 02:27:27;;;;;;;;;;;9.30;99.90;;;;;;4946370;28;19971;-53
2022/03/29 02:29:53;;;;;;;;;;;9.40;99.90;;;;;;4990582;28;20005;-51
2022/03/29 02:32:19;;;;;;;;;;;9.40;99.90;;;;;;4990008;28;19913;-51
2022/03/29 02:34:47;;;;;;;;;;;9.30;99.90;;;;;;4990217;28;19955;-52
2022/03/29 02:37:13;;;;;;;;;;;9.40;99.90;;;;;;4989402;28;19910;-51
2022/03/29 02:39:39;;;;;;;;;;;9.40;99.90;;;;;;4990115;28;19920;-52
2022/03/29 02:42:04;;;;;;;;;;;9.40;99.90;;;;;;4990194;28;20286;-52
2022/03/29 02:44:30;;;;;;;;;;;9.30;99.90;;;;;;4990048;28;19906;-52
2022/03/29 02:46:56;;;;;;;;;;;9.20;99.90;;;;;;4984124;28;19920;-51
2022/03/29 02:49:23;;;;;;;;;;;9.00;99.90;;;;;;4989932;28;19910;-51
2022/03/29 02:51:49;;;;;;;;;;;8.80;99.90;;;;;;4989985;28;19921;-51
2022/03/29 02:54:15;;;;;;;;;;;8.60;99.90;;;;;;4989684;28;19914;-53
2022/03/29 02:56:40;;;;;;;;;;;8.40;99.90;;;;;;4981474;28;19917;-51
2022/03/29 02:59:06;;;;;;;;;;;8.50;99.90;;;;;;4970580;28;19910;-51
2022/03/29 03:01:32;;;;;;;;;;;8.50;99.90;;;;;;4981884;28;20264;-53
2022/03/29 03:03:57;;;;;;;;;;;8.50;99.90;;;;;;4989339;28;20673;-52
2022/03/29 03:06:24;;;;;;;;;;;8.40;99.90;;;;;;4989587;28;19910;-51
2022/03/29 03:08:49;;;;;;;;;;;8.60;99.90;;;;;;4988363;28;20309;-52
2022/03/29 03:11:15;;;;;;;;;;;8.70;99.90;;;;;;4989664;28;19909;-52
2022/03/29 03:13:40;;;;;;;;;;;8.70;99.90;;;;;;4989492;28;19924;-51
2022/03/29 03:16:06;;;;;;;;;;;8.80;99.90;;;;;;4977541;28;19910;-52
2022/03/29 03:18:32;;;;;;;;;;;8.80;99.90;;;;;;4970263;28;20372;-53
2022/03/29 03:20:58;;;;;;;;;;;8.70;99.90;;;;;;4969702;28;19910;-51
2022/03/29 03:23:24;;;;;;;;;;;8.70;99.90;;;;;;4978003;28;19920;-52
2022/03/29 03:25:50;;;;;;;;;;;8.70;99.90;;;;;;4981903;28;19997;-52
2022/03/29 03:28:16;;;;;;;;;;;8.90;99.90;;;;;;4980950;28;20008;-51
2022/03/29 03:30:41;;;;;;;;;;;8.90;99.90;;;;;;4983010;28;19949;-52
2022/03/29 03:33:07;;;;;;;;;;;8.90;99.90;;;;;;4989196;28;19913;-53
2022/03/29 03:35:33;;;;;;;;;;;9.00;99.90;;;;;;4989530;28;19906;-52
2022/03/29 03:37:58;;;;;;;;;;;9.00;99.90;;;;;;4980046;28;19985;-52
2022/03/29 03:40:24;;;;;;;;;;;9.00;99.90;;;;;;4979558;28;19929;-53
2022/03/29 03:42:49;;;;;;;;;;;8.90;99.90;;;;;;4965845;28;20354;-54
2022/03/29 03:45:15;;;;;;;;;;;8.80;99.90;;;;;;4958526;28;20656;-52
2022/03/29 03:47:40;;;;;;;;;;;8.80;99.90;;;;;;4985706;28;20258;-53
2022/03/29 03:50:07;;;;;;;;;;;8.70;99.90;;;;;;4993505;28;19910;-53
2022/03/29 03:52:32;;;;;;;;;;;8.60;99.90;;;;;;4992892;28;19914;-52
2022/03/29 03:54:58;;;;;;;;;;;8.50;99.90;;;;;;4992824;28;19909;-53
2022/03/29 03:57:23;;;;;;;;;;;8.50;99.90;;;;;;4973688;28;20778;-51
2022/03/29 03:59:51;;;;;;;;;;;8.50;99.90;;;;;;4972463;28;19910;-52
2022/03/29 04:02:17;;;;;;;;;;;8.60;99.90;;;;;;4971610;28;20126;-52
2022/03/29 04:04:42;;;;;;;;;;;8.60;99.90;;;;;;4973076;28;19910;-53
2022/03/29 04:07:08;;;;;;;;;;;8.40;99.90;;;;;;4972064;28;19916;-52
2022/03/29 04:09:38;;;;;;;;;;;8.50;99.90;;;;;;4970745;28;20005;-52
2022/03/29 04:12:04;;;;;;;;;;;8.50;99.90;;;;;;4970903;28;20420;-52
2022/03/29 04:14:30;;;;;;;;;;;8.50;99.90;;;;;;4971476;28;20285;-51
2022/03/29 04:16:55;;;;;;;;;;;8.40;99.90;;;;;;4971826;28;19916;-51
2022/03/29 04:19:21;;;;;;;;;;;8.30;99.90;;;;;;4971706;28;19910;-53
2022/03/29 04:21:46;;;;;;;;;;;8.30;99.90;;;;;;4971833;28;20269;-51
2022/03/29 04:24:12;;;;;;;;;;;8.30;99.90;;;;;;4973299;28;20425;-52
2022/03/29 04:26:38;;;;;;;;;;;8.30;99.90;;;;;;4972115;28;20004;-51
2022/03/29 04:29:03;;;;;;;;;;;8.20;99.90;;;;;;4982493;28;19957;-52
2022/03/29 04:31:29;;;;;;;;;;;8.10;99.90;;;;;;4990885;28;19906;-52
2022/03/29 04:33:54;;;;;;;;;;;8.10;99.90;;;;;;4990863;28;19964;-51
2022/03/29 04:36:20;;;;;;;;;;;8.10;99.90;;;;;;4991103;28;19976;-52
2022/03/29 04:38:45;;;;;;;;;;;8.10;99.90;;;;;;4991586;28;19998;-51
2022/03/29 04:41:11;;;;;;;;;;;8.00;99.90;;;;;;4992113;28;20344;-51
2022/03/29 04:43:37;;;;;;;;;;;7.90;99.90;;;;;;4992162;28;19914;-52
2022/03/29 04:46:02;;;;;;;;;;;7.90;99.90;;;;;;4992032;28;19912;-52
2022/03/29 04:48:29;;;;;;;;;;;7.90;99.90;;;;;;4992360;28;20000;-51
2022/03/29 04:50:54;;;;;;;;;;;8.10;99.90;;;;;;4974825;28;19909;-52
2022/03/29 04:53:20;;;;;;;;;;;8.10;99.90;;;;;;4991753;28;20361;-52
2022/03/29 04:55:45;;;;;;;;;;;8.00;99.90;;;;;;4990912;28;20353;-52
2022/03/29 04:58:11;;;;;;;;;;;8.10;99.90;;;;;;4972024;28;19906;-51
2022/03/29 05:00:37;;;;;;;;;;;8.20;99.90;;;;;;4971877;28;20394;-51
2022/03/29 05:03:03;;;;;;;;;;;8.30;99.90;;;;;;4972274;28;19918;-52
2022/03/29 05:05:28;;;;;;;;;;;8.30;99.90;;;;;;4972514;28;19910;-52
2022/03/29 05:07:54;;;;;;;;;;;8.40;99.90;;;;;;4972176;28;19906;-53
2022/03/29 05:10:19;;;;;;;;;;;8.50;99.90;;;;;;4972191;28;19910;-52
2022/03/29 05:12:46;;;;;;;;;;;8.50;99.90;;;;;;4972268;28;20334;-51
2022/03/29 05:15:13;;;;;;;;;;;8.60;99.90;;;;;;4972140;28;19960;-52
2022/03/29 05:17:38;;;;;;;;;;;8.60;99.90;;;;;;4971574;28;19906;-53
2022/03/29 05:20:05;;;;;;;;;;;8.60;99.90;;;;;;4972285;28;19910;-53
2022/03/29 05:22:31;;;;;;;;;;;8.60;99.90;;;;;;4971969;28;19910;-51
2022/03/29 05:24:57;;;;;;;;;;;8.60;99.90;;;;;;4972080;28;20290;-53
2022/03/29 05:27:22;;;;;;;;;;;8.60;99.90;;;;;;4971550;28;19918;-53
2022/03/29 05:29:48;;;;;;;;;;;8.60;99.90;;;;;;4988942;28;19909;-53
2022/03/29 05:32:18;;;;;;;;;;;8.60;99.90;;;;;;4991267;28;20400;-52
2022/03/29 05:34:47;;;;;;;;;;;8.60;99.90;;;;;;4991235;28;20013;-51
2022/03/29 05:37:14;;;;;;;;;;;8.70;99.90;;;;;;4990756;28;20379;-51
2022/03/29 05:39:43;;;;;;;;;;;8.70;99.90;;;;;;4991103;28;19910;-52
2022/03/29 05:42:09;;;;;;;;;;;8.70;99.90;;;;;;4973322;28;19910;-52
2022/03/29 05:44:35;;;;;;;;;;;8.70;99.90;;;;;;4991101;28;19910;-52
2022/03/29 05:49:45;;;;;;;;;;;8.70;99.90;;;;;;4991495;28;19917;-51
2022/03/29 05:52:10;;;;;;;;;;;8.60;99.90;;;;;;4990657;28;19913;-51
2022/03/29 05:54:36;;;;;;;;;;;8.60;99.90;;;;;;4991147;28;19936;-53
2022/03/29 05:57:02;;;;;;;;;;;8.70;99.90;;;;;;4979243;28;19906;-53
2022/03/29 05:59:27;;;;;;;;;;;8.60;99.90;;;;;;4971331;28;19942;-51
2022/03/29 06:01:53;;;;;;;;;;;8.70;99.90;;;;;;4971145;28;20022;-51
2022/03/29 06:04:22;;;;;;;;;;;8.70;99.90;;;;;;4970786;28;20493;-52
2022/03/29 06:06:49;;;;;;;;;;;8.70;99.90;;;;;;4971125;28;20300;-53
2022/03/29 06:09:14;;;;;;;;;;;8.70;99.90;;;;;;4970804;28;19910;-52
2022/03/29 06:11:40;;;;;;;;;;;8.70;99.90;;;;;;4970993;28;19917;-53
2022/03/29 06:14:05;;;;;;;;;;;8.80;99.90;;;;;;4971076;28;20317;-52
2022/03/29 06:16:31;;;;;;;;;;;8.80;99.90;;;;;;4971125;28;20516;-52
2022/03/29 06:18:56;;;;;;;;;;;8.90;99.90;;;;;;4970769;28;19910;-51
2022/03/29 06:21:24;;;;;;;;;;;8.90;99.90;;;;;;4970917;28;19932;-52
2022/03/29 06:23:49;;;;;;;;;;;9.00;99.90;;;;;;4970717;28;19956;-52
2022/03/29 06:26:15;;;;;;;;;;;9.10;99.90;;;;;;4971132;28;19957;-52
2022/03/29 06:28:42;;;;;;;;;;;9.20;99.90;;;;;;4978429;28;19916;-52
2022/03/29 06:31:07;;;;;;;;;;;9.20;99.90;;;;;;4990435;28;19956;-51
2022/03/29 06:33:33;;;;;;;;;;;9.30;99.90;;;;;;4990228;28;20779;-52
2022/03/29 06:35:58;;;;;;;;;;;9.40;99.90;;;;;;4990136;28;19917;-51
2022/03/29 06:38:24;;;;;;;;;;;9.40;99.90;;;;;;4989653;28;19916;-51
2022/03/29 06:40:50;;;;;;;;;;;9.60;99.90;;;;;;4990184;28;19906;-52
2022/03/29 06:43:16;;;;;;;;;;;9.60;99.90;;;;;;4989574;28;19964;-53
2022/03/29 06:45:42;;;;;;;;;;;9.60;99.90;;;;;;4989805;28;19905;-52
2022/03/29 06:48:08;;;;;;;;;;;9.60;99.90;;;;;;4989369;28;19906;-53
2022/03/29 06:50:35;;;;;;;;;;;9.70;99.90;;;;;;4990008;28;19910;-52
2022/03/29 06:53:01;;;;;;;;;;;9.80;99.90;;;;;;4989969;28;19924;-52
2022/03/29 06:55:27;;;;;;;;;;;9.80;99.90;;;;;;4989940;28;19956;-52
2022/03/29 06:57:53;;;;;;;;;;;9.90;99.90;;;;;;4971687;28;19910;-51
2022/03/29 07:00:20;;;;;;;;;;;9.90;99.90;;;;;;4970272;28;19916;-53
2022/03/29 07:02:46;;;;;;;;;;;9.90;99.90;;;;;;4970135;28;19949;-52
2022/03/29 07:05:12;;;;;;;;;;;9.80;99.90;;;;;;4970340;28;19906;-52
2022/03/29 07:07:38;;;;;;;;;;;9.80;99.90;;;;;;4969807;28;19961;-51
2022/03/29 07:12:48;;;;;;;;;;;9.80;99.90;;;;;;4970324;28;20382;-53
2022/03/29 07:15:14;;;;;;;;;;;9.90;99.90;;;;;;4970476;28;19918;-51
2022/03/29 07:17:39;;;;;;;;;;;9.90;99.90;;;;;;4969800;28;19910;-53
2022/03/29 07:20:05;;;;;;;;;;;9.80;99.90;;;;;;4970521;28;19920;-52
2022/03/29 07:22:30;;;;;;;;;;;9.90;99.90;;;;;;4971357;28;19917;-52
2022/03/29 07:24:56;;;;;;;;;;;10.00;99.90;;;;;;4974316;28;20369;-51
2022/03/29 07:27:21;;;;;;;;;;;10.00;99.90;;;;;;4974075;28;20373;-51
2022/03/29 07:29:49;;;;;;;;;;;10.10;99.90;;;;;;4990540;28;20289;-52
2022/03/29 07:32:14;;;;;;;;;;;10.20;99.90;;;;;;4992973;28;20212;-51
2022/03/29 07:34:40;;;;;;;;;;;10.20;99.90;;;;;;4993083;28;20349;-51
2022/03/29 07:37:06;;;;;;;;;;;10.20;99.90;;;;;;4993220;28;19996;-52
2022/03/29 07:39:31;;;;;;;;;;;10.30;99.90;;;;;;4993053;28;20308;-54
2022/03/29 07:41:57;;;;;;;;;;;10.30;99.90;;;;;;4993004;28;19983;-52
2022/03/29 07:44:23;;;;;;;;;;;10.50;99.90;;;;;;4993243;28;19928;-52
2022/03/29 07:46:48;;;;;;;;;;;10.50;99.90;;;;;;4992839;28;19921;-52
2022/03/29 07:49:14;;;;;;;;;;;10.60;99.90;;;;;;4993153;28;19976;-53
2022/03/29 07:51:39;;;;;;;;;;;10.60;99.90;;;;;;4992717;28;19910;-54
2022/03/29 07:54:05;;;;;;;;;;;10.70;99.90;;;;;;4993049;28;20091;-52
2022/03/29 07:56:31;;;;;;;;;;;10.70;99.90;;;;;;4986031;28;19940;-51
2022/03/29 07:58:56;;;;;;;;;;;10.70;99.90;;;;;;4973130;28;19909;-51
2022/03/29 08:01:22;;;;;;;;;;;10.70;99.90;;;;;;4973487;28;19913;-52
2022/03/29 08:03:48;;;;;;;;;;;10.80;99.90;;;;;;4973121;28;19918;-52
2022/03/29 08:06:13;;;;;;;;;;;10.80;99.90;;;;;;4973193;28;19914;-51
2022/03/29 08:08:40;;;;;;;;;;;10.80;99.90;;;;;;4973417;28;19910;-51
2022/03/29 08:11:08;;;;;;;;;;;10.90;99.90;;;;;;4973107;28;19917;-52
2022/03/29 08:13:34;;;;;;;;;;;11.00;99.90;;;;;;4973361;28;19914;-54
2022/03/29 08:16:01;;;;;;;;;;;11.00;99.90;;;;;;4972911;28;19910;-53
2022/03/29 08:18:28;;;;;;;;;;;11.00;99.90;;;;;;4972852;28;19913;-51
2022/03/29 08:20:53;;;;;;;;;;;11.10;99.90;;;;;;4971892;28;19906;-52
2022/03/29 08:23:19;;;;;;;;;;;11.20;99.90;;;;;;4972942;28;20008;-52
2022/03/29 08:25:45;;;;;;;;;;;11.10;99.90;;;;;;4973370;28;19957;-53
2022/03/29 08:28:11;;;;;;;;;;;11.20;99.90;;;;;;4976417;28;19910;-53
2022/03/29 08:30:37;;;;;;;;;;;11.30;99.90;;;;;;4992242;28;19964;-52
2022/03/29 08:33:03;;;;;;;;;;;11.30;99.90;;;;;;4992174;28;20344;-54
2022/03/29 08:35:31;;;;;;;;;;;11.30;99.90;;;;;;4991085;28;19942;-52
2022/03/29 08:37:57;;;;;;;;;;;11.40;99.90;;;;;;4991864;28;19944;-51
2022/03/29 08:40:26;;;;;;;;;;;11.30;99.90;;;;;;4992178;28;19953;-53
2022/03/29 08:42:54;;;;;;;;;;;11.40;99.90;;;;;;4992003;28;19910;-53
2022/03/29 08:45:25;;;;;;;;;;;11.50;99.90;;;;;;4992058;28;19916;-53
2022/03/29 08:47:51;;;;;;;;;;;11.60;99.90;;;;;;4991964;28;20332;-51
2022/03/29 08:50:17;;;;;;;;;;;11.60;99.90;;;;;;4992032;28;20424;-52
2022/03/29 08:52:44;;;;;;;;;;;11.70;99.90;;;;;;4991867;28;19914;-51
2022/03/29 08:55:10;;;;;;;;;;;11.90;99.90;;;;;;4991646;28;19933;-53
2022/03/29 08:57:36;;;;;;;;;;;11.90;99.90;;;;;;4975776;28;19910;-51
2022/03/29 09:00:04;;;;;;;;;;;11.90;99.90;;;;;;4972570;28;19988;-52
2022/03/29 09:02:33;;;;;;;;;;;11.70;99.90;;;;;;4972116;28;20016;-52
2022/03/29 09:05:06;;;;;;;;;;;11.70;99.90;;;;;;4971900;28;19910;-51
2022/03/29 09:07:52;;;;;;;;;;;11.70;99.90;;;;;;4971989;28;20350;-52
2022/03/29 09:10:19;;;;;;;;;;;11.60;99.90;;;;;;4954490;28;20476;-52
2022/03/29 09:12:45;;;;;;;;;;;11.50;99.90;;;;;;4971950;28;19914;-52
2022/03/29 09:15:10;;;;;;;;;;;11.60;99.90;;;;;;4972223;28;19933;-53
2022/03/29 09:17:38;;;;;;;;;;;11.70;99.90;;;;;;4971722;28;20282;-50
2022/03/29 09:20:08;;;;;;;;;;;11.80;99.90;;;;;;4972085;28;19910;-52
2022/03/29 09:22:34;;;;;;;;;;;11.90;99.90;;;;;;4971816;28;20655;-51
2022/03/29 09:25:00;;;;;;;;;;;11.80;99.90;;;;;;4972074;28;19906;-51
2022/03/29 09:27:26;;;;;;;;;;;11.80;99.90;;;;;;4971492;28;19957;-52
2022/03/29 09:30:11;;;;;;;;;;;11.70;99.90;;;;;;4989342;28;19910;-53
2022/03/29 09:32:54;;;;;;;;;;;11.80;99.90;;;;;;4991133;28;19914;-53
2022/03/29 09:35:20;;;;;;;;;;;11.90;99.90;;;;;;4990238;28;19920;-52
2022/03/29 09:37:45;;;;;;;;;;;12.10;99.90;;;;;;4990736;28;19914;-52
2022/03/29 09:40:12;;;;;;;;;;;12.30;99.90;;;;;;4990880;28;19957;-52
2022/03/29 09:42:39;;;;;;;;;;;12.40;99.90;;;;;;4990804;28;19914;-54
2022/03/29 09:45:05;;;;;;;;;;;12.50;99.90;;;;;;4990696;28;19909;-51
2022/03/29 09:47:30;;;;;;;;;;;12.70;99.90;;;;;;4990586;28;20341;-52
2022/03/29 09:49:56;;;;;;;;;;;12.70;99.90;;;;;;4990971;28;19910;-54
2022/03/29 09:52:26;;;;;;;;;;;12.50;99.90;;;;;;4990880;28;19921;-54
2022/03/29 09:55:13;;;;;;;;;;;12.50;99.90;;;;;;4990741;28;19910;-54
2022/03/29 09:57:55;;;;;;;;;;;12.70;99.90;;;;;;4974194;28;19913;-53
2022/03/29 10:00:30;;;;;;;;;;;12.70;99.90;;;;;;4971381;28;20511;-51
2022/03/29 10:02:57;;;;;;;;;;;12.90;99.90;;;;;;4971128;28;19922;-52
2022/03/29 10:05:23;;;;;;;;;;;12.80;99.90;;;;;;4971199;28;19913;-52
2022/03/29 10:10:43;;;;;;;;;;;12.80;99.90;;;;;;4971333;28;19917;-53
2022/03/29 10:13:08;;;;;;;;;;;12.80;99.90;;;;;;4970808;28;19921;-53
2022/03/29 10:15:34;;;;;;;;;;;12.80;99.90;;;;;;4957417;28;19910;-52
2022/03/29 10:18:00;;;;;;;;;;;12.70;99.90;;;;;;4970899;28;19907;-52
2022/03/29 10:20:26;;;;;;;;;;;12.60;99.90;;;;;;4971018;28;19960;-52
2022/03/29 10:22:52;;;;;;;;;;;12.60;99.90;;;;;;4970798;28;19916;-52
2022/03/29 10:25:18;;;;;;;;;;;12.60;99.90;;;;;;4970820;28;19912;-52
2022/03/29 10:27:44;;;;;;;;;;;12.50;99.90;;;;;;4971033;28;19906;-54
2022/03/29 10:30:10;;;;;;;;;;;12.70;99.90;;;;;;4990261;28;19909;-53
2022/03/29 10:32:35;;;;;;;;;;;12.60;99.90;;;;;;4972339;28;19921;-53
2022/03/29 10:35:03;;;;;;;;;;;12.60;99.90;;;;;;4990240;28;20008;-52
2022/03/29 10:37:28;;;;;;;;;;;12.50;99.90;;;;;;4972756;28;19921;-52
2022/03/29 10:40:00;;;;;;;;;;;12.60;99.90;;;;;;4990018;28;19913;-52
2022/03/29 10:42:28;;;;;;;;;;;12.60;99.90;;;;;;4990063;28;19909;-52
2022/03/29 10:44:57;;;;;;;;;;;12.80;99.90;;;;;;4989731;28;20027;-53
2022/03/29 10:47:27;;;;;;;;;;;13.00;99.90;;;;;;4989749;28;20309;-53
2022/03/29 10:49:52;;;;;;;;;;;13.10;99.90;;;;;;4989858;28;19916;-54
2022/03/29 10:52:21;;;;;;;;;;;13.30;99.90;;;;;;4989483;28;19917;-51
2022/03/29 10:54:47;;;;;;;;;;;13.40;99.90;;;;;;4989806;28;19910;-52
2022/03/29 10:57:20;;;;;;;;;;;13.60;99.90;;;;;;4976231;28;20020;-51
2022/03/29 10:59:50;;;;;;;;;;;13.80;99.90;;;;;;4970536;28;19910;-54
2022/03/29 11:02:18;;;;;;;;;;;13.90;99.90;;;;;;4970001;28;19922;-53
2022/03/29 11:05:03;;;;;;;;;;;14.00;99.90;;;;;;4970575;28;20378;-53
2022/03/29 11:07:30;;;;;;;;;;;14.00;99.90;;;;;;4969988;28;19913;-52
2022/03/29 11:10:09;;;;;;;;;;;13.40;99.90;;;;;;4970542;28;19914;-49
2022/03/29 11:12:38;;;;;;;;;;;13.60;99.90;;;;;;4970315;28;19949;-52
2022/03/29 11:15:24;;;;;;;;;;;14.00;99.90;;;;;;4970266;28;19910;-54
2022/03/29 11:17:50;;;;;;;;;;;14.20;99.90;;;;;;4970142;28;19910;-52
2022/03/29 11:20:32;;;;;;;;;;;14.20;99.90;;;;;;4970078;28;19914;-52
2022/03/29 11:23:01;;;;;;;;;;;14.30;99.90;;;;;;4970145;28;19910;-54
2022/03/29 11:25:27;;;;;;;;;;;14.20;99.90;;;;;;4970120;28;19906;-51
2022/03/29 11:27:53;;;;;;;;;;;14.30;99.90;;;;;;4971367;28;19917;-53
2022/03/29 11:30:19;;;;;;;;;;;14.20;99.90;;;;;;4989770;28;19917;-51
2022/03/29 11:32:45;;;;;;;;;;;14.30;99.90;;;;;;4971501;28;19967;-51
2022/03/29 11:35:12;;;;;;;;;;;14.20;99.90;;;;;;4989288;28;19910;-51
2022/03/29 11:37:40;;;;;;;;;;;14.20;99.90;;;;;;4989268;28;19906;-51
2022/03/29 11:40:12;;;;;;;;;;;14.20;99.90;;;;;;4989355;28;19921;-51
2022/03/29 11:42:59;;;;;;;;;;;14.20;99.90;;;;;;4988845;28;19909;-53
2022/03/29 11:45:26;;;;;;;;;;;14.10;99.90;;;;;;4989221;28;19909;-50
2022/03/29 11:47:52;;;;;;;;;;;14.20;99.90;;;;;;4989262;28;19910;-52
2022/03/29 11:50:28;;;;;;;;;;;14.20;99.90;;;;;;4988789;28;19910;-53
2022/03/29 11:52:53;;;;;;;;;;;14.30;99.90;;;;;;4988857;28;20293;-50
2022/03/29 11:55:19;;;;;;;;;;;14.30;99.90;;;;;;4989271;28;19910;-52
2022/03/29 11:57:44;;;;;;;;;;;14.30;99.90;;;;;;4972144;28;19943;-51
2022/03/29 12:00:23;;;;;;;;;;;14.40;99.90;;;;;;4969984;28;19921;-50
2022/03/29 12:02:49;;;;;;;;;;;14.30;99.90;;;;;;4969388;28;19917;-52
2022/03/29 12:05:26;;;;;;;;;;;14.30;99.90;;;;;;4969773;28;19914;-52
2022/03/29 12:07:55;;;;;;;;;;;14.50;99.90;;;;;;4969801;28;19965;-53
2022/03/29 12:10:28;;;;;;;;;;;14.60;99.90;;;;;;4973373;28;19945;-53
2022/03/29 12:12:53;;;;;;;;;;;14.70;99.90;;;;;;4972680;28;20009;-51
2022/03/29 12:15:22;;;;;;;;;;;14.60;99.90;;;;;;4973180;28;20004;-51
2022/03/29 12:17:51;;;;;;;;;;;14.60;99.90;;;;;;4972969;28;20250;-50
2022/03/29 12:20:32;;;;;;;;;;;14.60;99.90;;;;;;4973279;28;20289;-52
2022/03/29 12:22:57;;;;;;;;;;;14.70;99.90;;;;;;4972929;28;19944;-52
2022/03/29 12:25:23;;;;;;;;;;;14.60;99.90;;;;;;4973137;28;19934;-52
2022/03/29 12:27:48;;;;;;;;;;;14.60;99.90;;;;;;4973396;28;20524;-51
2022/03/29 12:30:14;;;;;;;;;;;14.60;99.90;;;;;;4992106;28;19914;-51
2022/03/29 12:32:45;;;;;;;;;;;14.60;99.90;;;;;;4992074;28;19921;-50
2022/03/29 12:35:15;;;;;;;;;;;14.70;99.90;;;;;;4992464;28;19916;-51
2022/03/29 12:37:46;;;;;;;;;;;14.80;99.90;;;;;;4991970;28;19910;-51
2022/03/29 12:40:14;;;;;;;;;;;14.80;99.90;;;;;;4992080;28;19910;-49
2022/03/29 12:42:40;;;;;;;;;;;15.00;99.90;;;;;;4991644;28;19910;-50
2022/03/29 12:45:07;;;;;;;;;;;14.90;99.90;;;;;;4992164;28;19960;-52
2022/03/29 12:47:34;;;;;;;;;;;15.10;99.90;;;;;;4991397;28;19905;-50
2022/03/29 12:50:00;;;;;;;;;;;15.20;99.90;;;;;;4992198;28;19910;-52
2022/03/29 12:52:26;;;;;;;;;;;15.00;99.90;;;;;;4991894;28;19925;-52
2022/03/29 12:54:52;;;;;;;;;;;15.10;99.90;;;;;;4991924;28;20573;-51
2022/03/29 12:57:20;;;;;;;;;;;15.20;99.90;;;;;;4978001;28;19906;-51
2022/03/29 12:59:49;;;;;;;;;;;15.30;99.90;;;;;;4972153;28;20388;-50
2022/03/29 13:02:17;;;;;;;;;;;15.40;99.90;;;;;;4972034;28;19918;-51
2022/03/29 13:04:47;;;;;;;;;;;15.40;99.90;;;;;;4972162;28;19918;-51
2022/03/29 13:07:32;;;;;;;;;;;15.40;99.90;;;;;;4972171;28;19917;-51
2022/03/29 13:10:00;;;;;;;;;;;15.30;99.90;;;;;;4972002;28;19916;-50
2022/03/29 13:12:25;;;;;;;;;;;15.40;99.90;;;;;;4972126;28;19929;-52
2022/03/29 13:14:51;;;;;;;;;;;15.30;99.90;;;;;;4972028;28;19914;-52
2022/03/29 13:17:16;;;;;;;;;;;15.40;99.90;;;;;;4971983;28;19989;-52
2022/03/29 13:19:55;;;;;;;;;;;15.40;99.90;;;;;;4970301;28;19910;-51
2022/03/29 13:22:20;;;;;;;;;;;15.40;99.90;;;;;;4952471;29;19997;-52
2022/03/29 13:24:46;;;;;;;;;;;15.50;99.90;;;;;;4952814;29;20018;-51
2022/03/29 13:27:12;;;;;;;;;;;15.50;99.60;;;;;;4952403;29;20298;-50
2022/03/29 13:29:37;;;;;;;;;;;15.40;99.00;;;;;;4980243;28;19905;-51
2022/03/29 13:32:05;;;;;;;;;;;15.50;99.90;;;;;;4990786;28;19956;-51
2022/03/29 13:34:31;;;;;;;;;;;15.40;98.50;;;;;;4991130;28;20274;-51
2022/03/29 13:36:57;;;;;;;;;;;15.20;98.10;;;;;;4990763;28;19933;-49
2022/03/29 13:39:24;;;;;;;;;;;15.30;99.90;;;;;;4991195;28;19922;-50
2022/03/29 13:41:50;;;;;;;;;;;15.40;99.60;;;;;;4990945;28;19906;-50
2022/03/29 13:44:15;;;;;;;;;;;15.30;98.20;;;;;;4990666;28;19917;-51
2022/03/29 13:46:41;;;;;;;;;;;15.20;98.70;;;;;;4990778;28;20396;-51
2022/03/29 13:49:08;;;;;;;;;;;15.20;98.10;;;;;;4990544;28;19949;-50
2022/03/29 13:51:34;;;;;;;;;;;15.20;97.20;;;;;;4990590;28;20458;-50
2022/03/29 13:54:00;;;;;;;;;;;15.20;98.00;;;;;;4990590;28;19917;-50
2022/03/29 13:56:31;;;;;;;;;;;15.30;99.90;;;;;;4984268;28;20377;-51
2022/03/29 13:59:00;;;;;;;;;;;15.30;98.40;;;;;;4970987;28;19914;-52
2022/03/29 14:01:26;;;;;;;;;;;15.30;97.60;;;;;;4971028;28;19914;-51
2022/03/29 14:03:51;;;;;;;;;;;15.10;96.90;;;;;;4970605;28;19969;-52
2022/03/29 14:06:18;;;;;;;;;;;15.00;95.50;;;;;;4971246;28;20277;-50
2022/03/29 14:08:44;;;;;;;;;;;14.90;96.90;;;;;;4971314;28;20005;-52
2022/03/29 14:11:09;;;;;;;;;;;15.00;96.40;;;;;;4970985;28;19917;-52
2022/03/29 14:13:36;;;;;;;;;;;15.00;96.00;;;;;;4970827;28;19918;-50
2022/03/29 14:16:02;;;;;;;;;;;14.90;96.20;;;;;;4970890;28;20269;-52
2022/03/29 14:18:28;;;;;;;;;;;14.90;95.90;;;;;;4970578;28;20578;-51
2022/03/29 14:20:55;;;;;;;;;;;14.90;96.80;;;;;;4970979;28;19917;-52
2022/03/29 14:23:21;;;;;;;;;;;14.90;96.60;;;;;;4970886;28;19906;-54
2022/03/29 14:25:47;;;;;;;;;;;14.80;95.70;;;;;;4971057;28;19910;-54
2022/03/29 14:28:13;;;;;;;;;;;14.70;96.00;;;;;;4970385;28;19971;-53
2022/03/29 14:30:39;;;;;;;;;;;14.70;96.20;;;;;;4990349;28;20389;-52